Terminal Aerodrome Forecast
Issued by NWS

Home | Current Version | Previous Version | Text Only | Print | Product List | Glossary On
Versions: 1 2 3 4 5 6 7 8 9 10 11 12
384
FTUS44 KTSA 232320
TAFFYV
TAF
KFYV 232320Z 2400/2424 VRB04KT P6SM SCT120 BKN250
     FM240600 00000KT P6SM SCT250
      TEMPO 2409/2411 4SM BR
     FM241200 00000KT 4SM BR SKC
     FM241400 VRB04KT P6SM SKC=

USA.gov is the U.S. government's official web portal to all federal, state and local government web resources and services.